Time;durP1;ratioP1;P1;durP2;ratioP2;P2;SDS_P1;SDS_P2;PMS_P1;PMS_P2;Temp;Humidity;BMP_temperature;BMP_pressure;BME280_temperature;BME280_humidity;BME280_pressure;Samples;Min_cycle;Max_cycle;Signal;HPM_P1;HPM_P2
2023/07/20 00:01:23;;;;;;;5.95;3.20;;;14.60;99.90;;;;;;5049921;28;20033;-72
2023/07/20 00:03:54;;;;;;;6.95;3.10;;;14.50;99.90;;;;;;5050562;28;20381;-72
2023/07/20 00:06:24;;;;;;;4.80;3.10;;;14.50;99.90;;;;;;5048363;28;20062;-73
2023/07/20 00:08:51;;;;;;;4.20;2.95;;;14.50;99.90;;;;;;5050274;28;20111;-73
2023/07/20 00:11:17;;;;;;;4.72;3.55;;;14.50;99.90;;;;;;5050169;28;20451;-73
2023/07/20 00:13:43;;;;;;;5.22;3.17;;;14.50;99.90;;;;;;5050091;28;20031;-73
2023/07/20 00:16:09;;;;;;;4.78;3.15;;;14.50;99.90;;;;;;5050258;28;20489;-73
2023/07/20 00:18:34;;;;;;;3.72;3.20;;;14.40;99.90;;;;;;5049336;28;20020;-73
2023/07/20 00:21:01;;;;;;;4.10;3.40;;;14.50;99.90;;;;;;5050365;28;20084;-73
2023/07/20 00:23:27;;;;;;;3.78;3.22;;;14.50;99.90;;;;;;5049532;28;20060;-73
2023/07/20 00:25:53;;;;;;;4.20;3.22;;;14.50;99.90;;;;;;5050436;28;20083;-72
2023/07/20 00:28:19;;;;;;;4.97;3.45;;;14.40;99.90;;;;;;5049052;28;20049;-73
2023/07/20 00:30:44;;;;;;;4.07;3.15;;;14.40;99.90;;;;;;5050311;28;20029;-73
2023/07/20 00:33:11;;;;;;;8.43;3.20;;;14.40;99.90;;;;;;5050059;28;20447;-73
2023/07/20 00:35:38;;;;;;;6.22;3.20;;;14.30;99.90;;;;;;5049406;28;20033;-73
2023/07/20 00:38:04;;;;;;;3.95;3.17;;;14.40;99.90;;;;;;5050034;28;20040;-73
2023/07/20 00:40:36;;;;;;;4.05;3.40;;;14.40;99.90;;;;;;5049400;28;20059;-72
2023/07/20 00:43:03;;;;;;;5.45;3.47;;;14.40;99.90;;;;;;5050201;28;20029;-72
2023/07/20 00:45:29;;;;;;;6.10;3.10;;;14.40;99.90;;;;;;5049979;28;20025;-72
2023/07/20 00:47:55;;;;;;;5.25;3.58;;;14.30;99.90;;;;;;5050730;28;20025;-73
2023/07/20 00:50:21;;;;;;;4.72;3.08;;;14.20;99.90;;;;;;5049855;28;20078;-72
2023/07/20 00:52:47;;;;;;;3.80;3.33;;;14.20;99.90;;;;;;5050123;28;20033;-73
2023/07/20 00:55:13;;;;;;;4.50;3.28;;;14.20;99.90;;;;;;5049771;28;20434;-72
2023/07/20 00:57:39;;;;;;;4.75;3.10;;;14.20;99.90;;;;;;5052594;28;20505;-73
2023/07/20 01:00:06;;;;;;;5.45;3.70;;;14.20;99.90;;;;;;5053345;28;20155;-73
2023/07/20 01:02:32;;;;;;;7.90;3.88;;;14.20;99.90;;;;;;5052799;28;20029;-72
2023/07/20 01:04:57;;;;;;;3.63;3.30;;;14.20;99.90;;;;;;5053727;28;20036;-72
2023/07/20 01:07:32;;;;;;;4.45;3.25;;;14.20;99.90;;;;;;5053282;28;20051;-72
2023/07/20 01:10:32;;;;;;;6.03;3.58;;;14.20;99.90;;;;;;5053550;28;20048;-72
2023/07/20 01:13:00;;;;;;;5.68;3.35;;;14.10;99.90;;;;;;5053522;28;20028;-72
2023/07/20 01:15:26;;;;;;;5.50;3.30;;;14.10;99.90;;;;;;5053194;28;20033;-72
2023/07/20 01:17:51;;;;;;;6.20;3.60;;;14.10;99.90;;;;;;5053342;28;20489;-72
2023/07/20 01:20:20;;;;;;;5.07;4.00;;;14.10;99.90;;;;;;5053161;28;20324;-75
2023/07/20 01:23:36;;;;;;;8.55;3.90;;;14.10;99.90;;;;;;5052154;28;20116;-72
2023/07/20 01:26:35;;;;;;;3.63;2.88;;;14.10;99.90;;;;;;5053419;28;20036;-72
2023/07/20 01:29:23;;;;;;;5.32;3.58;;;14.10;99.90;;;;;;5053462;28;20041;-72
2023/07/20 01:31:53;;;;;;;7.88;3.80;;;14.10;99.90;;;;;;5053277;28;20029;-72
2023/07/20 01:34:22;;;;;;;4.90;3.50;;;14.10;99.90;;;;;;5053056;28;20043;-75
2023/07/20 01:36:50;;;;;;;7.45;3.58;;;14.10;99.90;;;;;;5052964;28;20032;-72
2023/07/20 01:39:16;;;;;;;6.00;3.58;;;14.10;99.90;;;;;;5053218;28;20052;-72
2023/07/20 01:41:43;;;;;;;5.22;4.15;;;14.10;99.90;;;;;;5052272;28;20036;-72
2023/07/20 01:44:08;;;;;;;5.85;4.20;;;14.10;99.90;;;;;;5052893;28;20043;-72
2023/07/20 01:46:34;;;;;;;4.93;3.42;;;14.10;99.90;;;;;;5051071;28;20476;-72
2023/07/20 01:49:00;;;;;;;4.93;3.63;;;14.10;99.90;;;;;;5052762;28;20363;-73
2023/07/20 01:51:25;;;;;;;3.25;2.95;;;14.10;99.90;;;;;;5052594;28;20025;-73
2023/07/20 01:53:51;;;;;;;6.45;3.50;;;14.00;99.90;;;;;;5052666;28;20093;-73
2023/07/20 01:56:17;;;;;;;5.28;4.22;;;14.00;99.90;;;;;;5051622;28;20040;-73
2023/07/20 01:58:42;;;;;;;4.22;3.75;;;14.00;99.90;;;;;;5052415;28;20478;-73
2023/07/20 02:01:08;;;;;;;5.38;3.42;;;13.90;99.90;;;;;;5052628;28;20021;-73
2023/07/20 02:03:34;;;;;;;5.03;3.80;;;13.90;99.90;;;;;;5052623;28;20116;-74
2023/07/20 02:06:00;;;;;;;5.10;3.05;;;13.90;99.90;;;;;;5052789;28;20472;-73
2023/07/20 02:08:25;;;;;;;5.50;3.60;;;13.90;99.90;;;;;;5051151;28;20040;-74
2023/07/20 02:10:51;;;;;;;8.23;3.53;;;13.90;99.90;;;;;;5052568;28;20582;-74
2023/07/20 02:13:17;;;;;;;6.07;3.97;;;13.90;99.90;;;;;;5052761;28;20040;-74
2023/07/20 02:15:43;;;;;;;4.40;3.55;;;13.80;99.90;;;;;;5052355;28;20103;-74
2023/07/20 02:18:09;;;;;;;7.43;3.92;;;13.80;99.90;;;;;;5052692;28;20104;-73
2023/07/20 02:20:35;;;;;;;9.57;4.40;;;13.80;99.90;;;;;;5052269;28;20431;-73
2023/07/20 02:23:01;;;;;;;7.07;3.72;;;13.70;99.90;;;;;;5052869;28;20029;-74
2023/07/20 02:25:27;;;;;;;4.82;3.92;;;13.70;99.90;;;;;;5052019;28;20047;-73
2023/07/20 02:27:52;;;;;;;6.35;3.85;;;13.80;99.90;;;;;;5052146;28;20049;-73
2023/07/20 02:30:18;;;;;;;7.82;4.05;;;13.80;99.90;;;;;;5052644;28;20080;-73
2023/07/20 02:32:45;;;;;;;6.82;4.32;;;13.70;99.90;;;;;;5051742;28;20032;-74
2023/07/20 02:35:11;;;;;;;7.15;4.47;;;13.80;99.90;;;;;;5052176;28;20029;-74
2023/07/20 02:37:37;;;;;;;7.40;4.40;;;13.70;99.90;;;;;;5051902;28;20094;-73
2023/07/20 02:40:04;;;;;;;6.35;4.18;;;13.70;99.90;;;;;;5052351;28;20029;-73
2023/07/20 02:42:30;;;;;;;6.20;3.75;;;13.70;99.90;;;;;;5051727;28;20021;-73
2023/07/20 02:44:56;;;;;;;6.15;4.15;;;13.60;99.90;;;;;;5052282;28;20048;-74
2023/07/20 02:47:21;;;;;;;5.95;4.43;;;13.60;99.90;;;;;;5052214;28;20124;-75
2023/07/20 02:49:47;;;;;;;6.93;4.20;;;13.60;99.90;;;;;;5050615;28;20025;-75
2023/07/20 02:52:13;;;;;;;8.07;4.25;;;13.60;99.90;;;;;;5051713;28;20477;-74
2023/07/20 02:54:38;;;;;;;9.52;5.03;;;13.60;99.90;;;;;;5051375;28;20025;-74
2023/07/20 02:57:04;;;;;;;7.72;4.60;;;13.60;99.90;;;;;;5051666;28;20033;-74
2023/07/20 02:59:30;;;;;;;8.60;4.45;;;13.60;99.90;;;;;;5051143;28;20028;-74
2023/07/20 03:01:57;;;;;;;6.68;4.43;;;13.60;99.90;;;;;;5051502;28;20029;-74
2023/07/20 03:04:25;;;;;;;6.38;4.63;;;13.50;99.90;;;;;;5051878;28;20029;-74
2023/07/20 03:06:51;;;;;;;8.23;4.60;;;13.50;99.90;;;;;;5051726;28;20076;-73
2023/07/20 03:09:16;;;;;;;5.55;4.35;;;13.50;99.90;;;;;;5052069;28;20470;-73
2023/07/20 03:11:42;;;;;;;5.25;4.00;;;13.40;99.90;;;;;;5049767;28;20028;-73
2023/07/20 03:14:08;;;;;;;8.27;4.68;;;13.40;99.90;;;;;;5051487;28;20040;-73
2023/07/20 03:16:33;;;;;;;7.35;4.43;;;13.40;99.90;;;;;;5051433;28;20439;-74
2023/07/20 03:19:03;;;;;;;6.95;4.22;;;13.30;99.90;;;;;;5051204;28;20036;-73
2023/07/20 03:21:29;;;;;;;6.68;4.10;;;13.40;99.90;;;;;;5049945;28;20029;-74
2023/07/20 03:23:55;;;;;;;10.60;5.00;;;13.40;99.90;;;;;;5051482;28;20075;-73
2023/07/20 03:26:21;;;;;;;6.18;4.28;;;13.40;99.90;;;;;;5051224;28;20032;-73
2023/07/20 03:28:47;;;;;;;5.38;4.28;;;13.40;99.90;;;;;;5050936;28;20961;-74
2023/07/20 03:31:14;;;;;;;5.70;3.90;;;13.40;99.90;;;;;;5051219;28;20446;-73
2023/07/20 03:33:40;;;;;;;5.35;4.45;;;13.40;99.90;;;;;;5050357;28;20129;-74
2023/07/20 03:36:06;;;;;;;10.77;4.93;;;13.40;99.90;;;;;;5050714;28;20108;-73
2023/07/20 03:38:32;;;;;;;6.00;4.38;;;13.30;99.90;;;;;;5050276;28;20025;-74
2023/07/20 03:41:00;;;;;;;7.60;4.75;;;13.30;99.90;;;;;;5050937;28;20155;-74
2023/07/20 03:43:27;;;;;;;10.30;5.45;;;13.30;99.90;;;;;;5051107;28;20048;-75
2023/07/20 03:45:53;;;;;;;5.65;4.97;;;13.20;99.90;;;;;;5050944;28;20347;-74
2023/07/20 03:48:23;;;;;;;8.88;4.90;;;13.30;99.90;;;;;;5050887;28;20108;-74
2023/07/20 03:50:51;;;;;;;8.95;5.28;;;13.20;99.90;;;;;;5050797;28;20036;-74
2023/07/20 03:53:17;;;;;;;11.60;4.82;;;13.30;99.90;;;;;;5050981;28;20069;-73
2023/07/20 03:55:47;;;;;;;5.82;4.93;;;13.20;99.90;;;;;;5050339;28;20158;-73
2023/07/20 03:58:13;;;;;;;10.07;6.03;;;13.30;99.90;;;;;;5050792;28;20032;-73
2023/07/20 04:00:40;;;;;;;9.18;5.10;;;13.20;99.90;;;;;;5050214;28;20079;-74
2023/07/20 04:03:06;;;;;;;7.47;4.93;;;13.20;99.90;;;;;;5050661;28;20041;-73
2023/07/20 04:05:32;;;;;;;8.65;5.40;;;13.30;99.90;;;;;;5050253;28;20033;-74
2023/07/20 04:07:58;;;;;;;9.40;4.90;;;13.30;99.90;;;;;;5050690;28;20116;-73
2023/07/20 04:10:23;;;;;;;7.50;5.05;;;13.30;99.90;;;;;;5050605;28;20103;-73
2023/07/20 04:12:49;;;;;;;8.00;5.25;;;13.30;99.90;;;;;;5049903;28;20645;-73
2023/07/20 04:15:15;;;;;;;8.70;5.28;;;13.30;99.90;;;;;;5049384;28;20037;-73
2023/07/20 04:17:41;;;;;;;9.77;5.30;;;13.30;99.90;;;;;;5049634;28;20039;-73
2023/07/20 04:20:08;;;;;;;4.88;4.43;;;13.30;99.90;;;;;;5050691;28;20051;-73
2023/07/20 04:22:34;;;;;;;8.18;5.25;;;13.20;99.90;;;;;;5050056;28;20539;-74
2023/07/20 04:24:59;;;;;;;7.60;5.22;;;13.30;99.90;;;;;;5051147;28;20048;-73
2023/07/20 04:27:26;;;;;;;7.45;5.35;;;13.30;99.90;;;;;;5050314;28;20156;-73
2023/07/20 04:29:52;;;;;;;7.95;5.15;;;13.30;99.90;;;;;;5049862;28;20044;-73
2023/07/20 04:32:18;;;;;;;7.35;5.18;;;13.30;99.90;;;;;;5049939;28;20044;-73
2023/07/20 04:34:43;;;;;;;7.35;5.55;;;13.30;99.90;;;;;;5049517;28;20108;-73
2023/07/20 04:37:09;;;;;;;7.75;5.32;;;13.30;99.90;;;;;;5050036;28;20041;-73
2023/07/20 04:39:35;;;;;;;10.40;6.32;;;13.30;99.90;;;;;;5049477;28;20029;-73
2023/07/20 04:42:00;;;;;;;11.00;5.97;;;13.30;99.90;;;;;;5050197;28;20101;-73
2023/07/20 04:44:26;;;;;;;11.15;6.43;;;13.30;99.90;;;;;;5050262;28;20112;-73
2023/07/20 04:46:52;;;;;;;6.40;5.30;;;13.30;99.90;;;;;;5049453;28;20727;-73
2023/07/20 04:49:18;;;;;;;8.25;5.53;;;13.30;99.90;;;;;;5050372;28;20033;-73
2023/07/20 04:51:43;;;;;;;9.05;6.57;;;13.30;99.90;;;;;;5049360;28;20458;-73
2023/07/20 04:54:09;;;;;;;11.75;6.35;;;13.30;99.90;;;;;;5050240;28;20035;-73
2023/07/20 04:56:35;;;;;;;10.40;6.50;;;13.30;99.90;;;;;;5048609;28;20029;-74
2023/07/20 04:59:00;;;;;;;9.60;6.28;;;13.30;99.90;;;;;;5050161;28;20025;-73
2023/07/20 05:01:29;;;;;;;10.85;5.55;;;13.20;99.90;;;;;;5050725;28;20033;-74
2023/07/20 05:03:55;;;;;;;10.02;5.97;;;13.30;99.90;;;;;;5050185;28;20082;-73
2023/07/20 05:06:20;;;;;;;9.50;5.88;;;13.30;99.90;;;;;;5050346;28;20056;-73
2023/07/20 05:08:46;;;;;;;8.27;5.28;;;13.30;99.90;;;;;;5049643;28;20139;-73
2023/07/20 05:11:12;;;;;;;10.63;5.85;;;13.30;99.90;;;;;;5050182;28;20036;-73
2023/07/20 05:13:38;;;;;;;8.75;5.95;;;13.30;99.90;;;;;;5049313;28;20040;-73
2023/07/20 05:16:03;;;;;;;8.63;6.18;;;13.30;99.90;;;;;;5050295;28;20029;-73
2023/07/20 05:18:29;;;;;;;8.50;5.88;;;13.40;99.90;;;;;;5049631;28;20086;-73
2023/07/20 05:20:55;;;;;;;8.07;5.65;;;13.40;99.90;;;;;;5048968;28;20096;-73
2023/07/20 05:23:21;;;;;;;10.65;6.10;;;13.40;99.90;;;;;;5050095;28;20374;-73
2023/07/20 05:25:54;;;;;;;10.00;6.38;;;13.50;99.90;;;;;;5049338;28;20033;-73
2023/07/20 05:28:20;;;;;;;8.07;5.93;;;13.50;99.90;;;;;;5049561;28;20084;-73
2023/07/20 05:30:46;;;;;;;8.13;5.90;;;13.50;99.90;;;;;;5048895;28;20052;-73
2023/07/20 05:33:12;;;;;;;8.60;5.95;;;13.50;99.90;;;;;;5049573;28;20408;-72
2023/07/20 05:35:37;;;;;;;7.63;5.53;;;13.60;99.90;;;;;;5048767;28;20082;-73
2023/07/20 05:38:05;;;;;;;9.68;6.28;;;13.60;99.90;;;;;;5049167;28;20052;-73
2023/07/20 05:40:31;;;;;;;9.88;5.90;;;13.60;99.90;;;;;;5049738;28;20048;-73
2023/07/20 05:42:56;;;;;;;12.90;7.00;;;13.70;99.90;;;;;;5049340;28;20317;-73
2023/07/20 05:45:22;;;;;;;11.15;6.65;;;13.80;99.90;;;;;;5053233;28;20162;-72
2023/07/20 05:47:48;;;;;;;9.77;6.65;;;13.70;99.90;;;;;;5052321;28;20029;-72
2023/07/20 05:50:14;;;;;;;8.98;5.30;;;13.70;99.90;;;;;;5052624;28;20032;-73
2023/07/20 05:52:41;;;;;;;7.57;5.50;;;13.80;99.90;;;;;;5052351;28;20043;-73
2023/07/20 05:55:07;;;;;;;8.82;6.00;;;13.90;99.90;;;;;;5053125;28;20046;-73
2023/07/20 05:57:33;;;;;;;10.93;5.95;;;13.90;99.90;;;;;;5051744;28;20146;-74
2023/07/20 05:59:59;;;;;;;8.85;5.57;;;14.00;99.90;;;;;;5053006;28;20403;-73
2023/07/20 06:02:25;;;;;;;6.90;5.85;;;14.10;99.90;;;;;;5053199;28;20025;-73
2023/07/20 06:04:50;;;;;;;7.15;5.28;;;14.10;99.90;;;;;;5051089;28;20343;-73
2023/07/20 06:07:16;;;;;;;12.55;6.20;;;14.10;99.90;;;;;;5052738;28;20111;-73
2023/07/20 06:09:42;;;;;;;8.38;5.95;;;14.10;99.90;;;;;;5052461;28;20025;-73
2023/07/20 06:12:08;;;;;;;8.30;5.20;;;14.10;99.90;;;;;;5053122;28;20087;-72
2023/07/20 06:14:34;;;;;;;7.50;6.25;;;14.20;99.90;;;;;;5051556;28;20028;-73
2023/07/20 06:17:00;;;;;;;9.00;6.05;;;14.30;99.90;;;;;;5052430;28;20032;-72
2023/07/20 06:19:26;;;;;;;8.90;6.38;;;14.30;99.90;;;;;;5053162;28;20024;-72
2023/07/20 06:21:51;;;;;;;9.23;6.10;;;14.40;99.90;;;;;;5052291;28;20025;-72
2023/07/20 06:24:17;;;;;;;8.68;6.35;;;14.40;99.90;;;;;;5052473;28;20108;-73
2023/07/20 06:26:43;;;;;;;10.52;6.38;;;14.50;99.90;;;;;;5052093;28;20528;-73
2023/07/20 06:29:09;;;;;;;10.88;5.90;;;14.50;99.90;;;;;;5052909;28;20053;-72
2023/07/20 06:31:35;;;;;;;8.93;6.15;;;14.50;99.90;;;;;;5051441;28;20137;-72
2023/07/20 06:34:02;;;;;;;10.57;6.38;;;14.50;99.90;;;;;;5052158;28;20137;-73
2023/07/20 06:36:28;;;;;;;8.93;6.13;;;14.60;99.90;;;;;;5052600;28;20467;-73
2023/07/20 06:38:54;;;;;;;8.60;5.90;;;14.60;99.90;;;;;;5052129;28;20102;-72
2023/07/20 06:41:20;;;;;;;7.05;5.63;;;14.60;99.90;;;;;;5052175;28;20043;-72
2023/07/20 06:43:46;;;;;;;12.82;6.10;;;14.70;99.90;;;;;;5051407;28;20466;-73
2023/07/20 06:46:12;;;;;;;10.68;6.15;;;14.70;99.90;;;;;;5052248;28;20083;-73
2023/07/20 06:48:38;;;;;;;8.15;6.15;;;14.70;99.90;;;;;;5052036;28;20443;-75
2023/07/20 06:51:03;;;;;;;9.68;6.40;;;14.80;99.90;;;;;;5051932;28;20029;-72
2023/07/20 06:53:30;;;;;;;8.20;5.60;;;14.80;99.90;;;;;;5051640;28;20439;-73
2023/07/20 06:55:58;;;;;;;10.15;6.70;;;15.00;99.90;;;;;;5051193;28;20025;-73
2023/07/20 06:58:25;;;;;;;10.30;6.95;;;15.00;99.90;;;;;;5051656;28;20110;-73
2023/07/20 07:00:50;;;;;;;11.63;6.88;;;15.00;99.90;;;;;;5049815;28;20041;-72
2023/07/20 07:03:16;;;;;;;8.90;6.18;;;15.10;99.90;;;;;;5051432;28;20548;-72
2023/07/20 07:05:44;;;;;;;8.95;6.35;;;15.10;99.90;;;;;;5050913;28;20051;-73
2023/07/20 07:08:09;;;;;;;9.30;7.00;;;15.20;99.90;;;;;;5051645;28;20466;-73
2023/07/20 07:10:36;;;;;;;10.30;6.50;;;15.30;99.90;;;;;;5051872;28;20191;-73
2023/07/20 07:13:02;;;;;;;9.02;6.30;;;15.40;99.90;;;;;;5051002;28;20029;-73
2023/07/20 07:15:28;;;;;;;10.32;6.60;;;15.50;99.90;;;;;;5051499;28;20114;-73
2023/07/20 07:17:54;;;;;;;9.40;7.28;;;15.50;99.90;;;;;;5051019;28;20070;-72
2023/07/20 07:20:20;;;;;;;10.15;6.28;;;15.60;99.90;;;;;;5051506;28;20021;-73
2023/07/20 07:22:46;;;;;;;14.32;6.55;;;15.50;99.90;;;;;;5049107;28;20055;-73
2023/07/20 07:25:12;;;;;;;11.05;7.15;;;15.50;99.90;;;;;;5049609;28;20056;-72
2023/07/20 07:27:38;;;;;;;8.15;6.28;;;15.50;99.90;;;;;;5051205;28;20061;-72
2023/07/20 07:30:04;;;;;;;12.15;6.82;;;15.60;99.90;;;;;;5050765;28;20029;-72
2023/07/20 07:32:30;;;;;;;12.20;7.25;;;15.70;99.90;;;;;;5051453;28;20470;-73
2023/07/20 07:34:58;;;;;;;8.88;6.35;;;15.90;99.90;;;;;;5050545;28;20025;-73
2023/07/20 07:37:24;;;;;;;11.93;7.47;;;16.00;99.90;;;;;;5050953;28;20033;-73
2023/07/20 07:39:50;;;;;;;8.60;7.07;;;16.20;99.90;;;;;;5049918;28;20032;-73
2023/07/20 07:42:16;;;;;;;13.45;8.32;;;16.40;99.90;;;;;;5051418;28;20032;-73
2023/07/20 07:44:41;;;;;;;9.88;7.32;;;16.40;99.90;;;;;;5050964;28;20029;-76
2023/07/20 07:47:07;;;;;;;11.82;7.45;;;16.60;99.90;;;;;;5050345;28;20364;-73
2023/07/20 07:49:33;;;;;;;10.63;8.05;;;16.70;99.90;;;;;;5050835;28;20060;-73
2023/07/20 07:52:02;;;;;;;8.77;7.45;;;16.80;99.90;;;;;;5048557;28;20032;-73
2023/07/20 07:54:28;;;;;;;10.82;8.77;;;17.00;99.90;;;;;;5048228;28;20033;-73
2023/07/20 07:56:54;;;;;;;12.05;8.10;;;17.00;99.90;;;;;;5050293;28;20025;-73
2023/07/20 07:59:19;;;;;;;11.63;7.72;;;17.10;99.90;;;;;;5050645;28;20403;-74
2023/07/20 08:01:45;;;;;;;12.40;8.98;;;17.00;99.90;;;;;;5049520;28;20532;-74
2023/07/20 08:04:11;;;;;;;13.77;9.15;;;17.00;99.90;;;;;;5050190;28;20033;-73
2023/07/20 08:06:37;;;;;;;15.07;9.57;;;16.80;99.90;;;;;;5048906;28;20033;-73
2023/07/20 08:09:02;;;;;;;12.65;9.85;;;16.70;99.90;;;;;;5049260;28;20060;-73
2023/07/20 08:11:30;;;;;;;13.30;9.73;;;16.90;99.90;;;;;;5049400;28;20061;-73
2023/07/20 08:13:56;;;;;;;13.77;9.95;;;17.00;99.90;;;;;;5048857;28;20040;-73
2023/07/20 08:16:22;;;;;;;12.93;11.15;;;17.00;99.90;;;;;;5049969;28;20029;-73
2023/07/20 08:18:48;;;;;;;13.30;10.45;;;17.10;99.90;;;;;;5049181;28;20462;-73
2023/07/20 08:21:13;;;;;;;14.27;10.45;;;17.30;99.90;;;;;;5049504;28;20056;-73
2023/07/20 08:23:39;;;;;;;13.63;9.82;;;17.40;99.90;;;;;;5049605;28;20430;-73
2023/07/20 08:26:05;;;;;;;14.90;9.95;;;17.50;99.90;;;;;;5049109;28;20029;-73
2023/07/20 08:28:31;;;;;;;15.07;10.20;;;17.50;99.90;;;;;;5049813;28;20051;-73
2023/07/20 08:30:57;;;;;;;11.65;9.38;;;17.50;99.90;;;;;;5049149;28;20128;-73
2023/07/20 08:33:23;;;;;;;12.95;9.52;;;17.60;99.90;;;;;;5049731;28;20025;-73
2023/07/20 08:35:49;;;;;;;11.30;8.85;;;17.60;99.90;;;;;;5049083;28;20105;-74
2023/07/20 08:38:15;;;;;;;10.20;8.60;;;17.70;99.90;;;;;;5049630;28;20100;-73
2023/07/20 08:40:45;;;;;;;12.10;8.65;;;17.70;99.90;;;;;;5049250;28;20123;-73
2023/07/20 08:43:12;;;;;;;12.32;9.05;;;17.60;99.90;;;;;;5049501;28;20024;-73
2023/07/20 08:45:41;;;;;;;13.88;8.93;;;17.60;99.90;;;;;;5049476;28;20090;-73
2023/07/20 08:48:08;;;;;;;9.63;7.90;;;17.80;99.90;;;;;;5049038;28;20059;-73
2023/07/20 08:50:35;;;;;;;8.82;7.90;;;17.80;99.90;;;;;;5049584;28;20021;-73
2023/07/20 08:53:02;;;;;;;10.15;7.45;;;17.90;99.90;;;;;;5048824;28;20021;-73
2023/07/20 08:55:29;;;;;;;11.02;7.85;;;18.20;99.90;;;;;;5048626;28;20041;-73
2023/07/20 08:57:56;;;;;;;11.48;8.20;;;18.40;99.90;;;;;;5048989;28;20104;-74
2023/07/20 09:00:22;;;;;;;9.48;7.75;;;18.60;99.90;;;;;;5049197;28;20029;-73
2023/07/20 09:02:53;;;;;;;8.02;6.88;;;18.60;99.90;;;;;;5048510;28;20516;-74
2023/07/20 09:05:20;;;;;;;10.07;7.65;;;18.60;99.90;;;;;;5049124;28;20040;-73
2023/07/20 09:07:46;;;;;;;10.32;7.80;;;18.70;99.90;;;;;;5048462;28;20021;-76
2023/07/20 09:10:12;;;;;;;9.50;7.80;;;18.80;99.90;;;;;;5049196;28;20104;-74
2023/07/20 09:12:40;;;;;;;8.38;7.13;;;18.70;99.90;;;;;;5048851;28;20068;-73
2023/07/20 09:15:07;;;;;;;9.68;7.10;;;18.80;99.90;;;;;;5048671;28;20509;-74
2023/07/20 09:17:33;;;;;;;8.65;6.72;;;18.70;99.90;;;;;;5049168;28;20057;-74
2023/07/20 09:20:05;;;;;;;9.13;6.50;;;18.70;99.90;;;;;;5052006;28;20391;-74
2023/07/20 09:22:31;;;;;;;7.95;6.63;;;18.50;99.90;;;;;;5053027;28;20117;-74
2023/07/20 09:24:58;;;;;;;6.63;5.75;;;18.50;99.90;;;;;;5052501;28;20384;-74
2023/07/20 09:27:37;;;;;;;7.53;6.28;;;18.30;99.90;;;;;;5052797;28;20049;-74
2023/07/20 09:30:04;;;;;;;8.52;6.28;;;18.30;99.90;;;;;;5052320;28;20047;-73
2023/07/20 09:32:30;;;;;;;6.88;6.05;;;18.20;99.90;;;;;;5052552;28;20395;-74
2023/07/20 09:34:55;;;;;;;7.30;6.53;;;18.20;99.90;;;;;;5052420;28;20080;-74
2023/07/20 09:37:22;;;;;;;7.15;6.07;;;18.10;99.90;;;;;;5052726;28;20028;-73
2023/07/20 09:39:51;;;;;;;7.55;5.97;;;18.10;99.90;;;;;;5051696;28;20029;-74
2023/07/20 09:42:16;;;;;;;8.10;6.43;;;18.10;99.90;;;;;;5052894;28;20493;-73
2023/07/20 09:44:45;;;;;;;11.02;6.95;;;18.10;99.90;;;;;;5052162;28;20116;-71
2023/07/20 09:47:11;;;;;;;7.68;6.80;;;18.20;99.90;;;;;;5052341;28;20452;-72
2023/07/20 09:49:43;;;;;;;10.60;6.72;;;18.20;99.90;;;;;;5053227;28;20037;-72
2023/07/20 09:52:09;;;;;;;11.13;6.67;;;18.20;99.90;;;;;;5051713;28;20111;-72
2023/07/20 09:54:38;;;;;;;7.20;6.50;;;18.10;99.90;;;;;;5051344;28;20466;-72
2023/07/20 09:57:12;;;;;;;9.27;6.72;;;18.20;99.90;;;;;;5051886;28;20033;-72
2023/07/20 09:59:38;;;;;;;8.18;6.70;;;18.30;99.90;;;;;;5052206;28;20025;-73
2023/07/20 10:02:16;;;;;;;9.38;7.00;;;18.40;99.90;;;;;;5051186;28;20202;-72
2023/07/20 10:04:43;;;;;;;10.98;7.10;;;18.60;99.90;;;;;;5052078;28;20100;-73
2023/07/20 10:07:13;;;;;;;10.07;6.50;;;18.80;99.90;;;;;;5051024;28;20067;-73
2023/07/20 10:09:41;;;;;;;8.63;6.25;;;18.70;99.90;;;;;;5051512;28;20408;-73
2023/07/20 10:12:08;;;;;;;7.78;6.68;;;18.60;99.90;;;;;;5051380;28;20389;-73
2023/07/20 10:14:41;;;;;;;8.13;6.75;;;18.60;99.90;;;;;;5051322;28;20060;-73
2023/07/20 10:17:11;;;;;;;10.38;6.88;;;18.50;99.90;;;;;;5050962;28;20036;-73
2023/07/20 10:19:44;;;;;;;10.15;6.80;;;18.40;99.90;;;;;;5051141;28;20033;-73
2023/07/20 10:22:23;;;;;;;9.55;7.95;;;18.20;99.90;;;;;;5051466;28;20033;-73
2023/07/20 10:24:51;;;;;;;9.90;6.97;;;18.10;99.90;;;;;;5050812;28;20029;-73
2023/07/20 10:27:17;;;;;;;7.60;6.55;;;18.10;99.90;;;;;;5051147;28;20585;-73
2023/07/20 10:29:43;;;;;;;9.75;6.57;;;18.20;99.90;;;;;;5051298;28;20033;-73
2023/07/20 10:32:10;;;;;;;7.95;6.47;;;18.20;99.90;;;;;;5051209;28;20028;-73
2023/07/20 10:34:36;;;;;;;7.57;6.55;;;18.20;99.90;;;;;;5051313;28;20037;-73
2023/07/20 10:37:01;;;;;;;9.93;6.95;;;18.20;99.90;;;;;;5049176;28;20135;-73
2023/07/20 10:39:30;;;;;;;7.85;6.75;;;18.10;99.90;;;;;;5051052;28;20033;-73
2023/07/20 10:42:12;;;;;;;8.13;7.20;;;18.10;99.90;;;;;;5050747;28;20025;-72
2023/07/20 10:44:38;;;;;;;12.23;8.35;;;18.00;99.90;;;;;;5051487;28;20131;-72
2023/07/20 10:47:10;;;;;;;10.75;8.82;;;17.80;99.90;;;;;;5050668;28;20831;-72
2023/07/20 10:49:55;;;;;;;13.65;9.23;;;17.70;99.90;;;;;;5051771;28;20104;-72
2023/07/20 10:52:21;;;;;;;12.20;9.63;;;17.50;99.90;;;;;;5050955;28;20044;-73
2023/07/20 10:54:48;;;;;;;10.95;8.65;;;17.30;99.90;;;;;;5050865;28;20029;-75
2023/07/20 10:57:28;;;;;;;13.35;9.88;;;17.10;99.90;;;;;;5051257;28;20024;-72
2023/07/20 11:00:11;;;;;;;11.50;9.18;;;17.10;99.90;;;;;;5050338;28;20501;-73
2023/07/20 11:02:48;;;;;;;10.23;8.40;;;17.30;99.90;;;;;;5051186;28;20408;-73
2023/07/20 11:05:39;;;;;;;10.00;8.07;;;17.20;99.90;;;;;;5051130;28;20029;-73
2023/07/20 11:08:43;;;;;;;8.48;7.15;;;17.40;99.90;;;;;;5050436;28;20044;-72
2023/07/20 11:11:26;;;;;;;12.63;8.63;;;17.60;99.90;;;;;;5050326;28;20089;-73
2023/07/20 11:13:59;;;;;;;9.65;7.60;;;17.90;99.90;;;;;;5050302;28;20025;-73
2023/07/20 11:16:43;;;;;;;;;;;18.10;99.90;;;;;;5051056;28;20443;-73
2023/07/20 11:19:26;;;;;;;9.52;7.47;;;18.40;99.90;;;;;;5050177;28;19914;-74
2023/07/20 11:21:57;;;;;;;10.05;8.25;;;18.50;99.90;;;;;;5050377;28;20060;-73
2023/07/20 11:24:23;;;;;;;8.90;8.00;;;18.50;99.90;;;;;;5050825;28;20036;-73
2023/07/20 11:26:51;;;;;;;9.50;8.32;;;18.40;99.90;;;;;;5050361;28;20025;-73
2023/07/20 11:29:18;;;;;;;8.05;7.10;;;18.50;99.90;;;;;;5051300;28;20080;-73
2023/07/20 11:31:45;;;;;;;10.10;7.82;;;18.60;99.90;;;;;;5051091;28;20075;-73
2023/07/20 11:34:18;;;;;;;8.00;7.18;;;18.90;99.90;;;;;;5050295;28;20021;-72
2023/07/20 11:36:51;;;;;;;8.88;7.18;;;19.10;99.90;;;;;;5050029;28;20056;-74
2023/07/20 11:39:21;;;;;;;9.15;7.43;;;19.10;99.90;;;;;;5050643;28;20211;-73
2023/07/20 11:41:51;;;;;;;9.07;8.13;;;19.30;99.90;;;;;;5049419;28;20439;-75
2023/07/20 11:44:18;;;;;;;7.55;6.65;;;19.30;99.90;;;;;;5050181;28;20455;-73
2023/07/20 11:46:44;;;;;;;7.72;6.68;;;19.40;99.90;;;;;;5050594;28;20103;-73
2023/07/20 11:49:11;;;;;;;7.45;6.50;;;19.60;99.90;;;;;;5048880;28;20033;-73
2023/07/20 11:51:37;;;;;;;9.55;6.82;;;19.70;99.90;;;;;;5048540;28;20029;-73
2023/07/20 11:54:06;;;;;;;9.10;6.75;;;19.80;99.90;;;;;;5049548;28;20342;-73
2023/07/20 11:56:31;;;;;;;7.68;6.60;;;20.00;99.90;;;;;;5049689;28;20095;-73
2023/07/20 11:59:02;;;;;;;9.02;6.43;;;19.90;99.90;;;;;;5049370;28;20433;-73
2023/07/20 12:01:31;;;;;;;9.70;6.57;;;19.90;99.90;;;;;;5050263;28;20087;-73
2023/07/20 12:03:59;;;;;;;6.80;6.07;;;20.10;99.90;;;;;;5049344;28;20465;-73
2023/07/20 12:06:27;;;;;;;6.30;4.82;;;20.30;99.90;;;;;;5050549;28;20432;-73
2023/07/20 12:08:57;;;;;;;7.15;5.75;;;20.20;99.90;;;;;;5049725;28;20037;-73
2023/07/20 12:11:32;;;;;;;6.60;5.75;;;19.90;99.90;;;;;;5050597;28;20021;-73
2023/07/20 12:13:58;;;;;;;7.97;6.65;;;19.70;99.90;;;;;;5049770;28;20327;-73
2023/07/20 12:16:27;;;;;;;9.93;7.38;;;19.50;99.90;;;;;;5050362;28;20120;-73
2023/07/20 12:19:01;;;;;;;10.57;8.15;;;19.40;99.90;;;;;;5049704;28;20470;-73
2023/07/20 12:21:27;;;;;;;8.93;7.80;;;19.30;99.90;;;;;;5049900;28;20466;-72
2023/07/20 12:23:53;;;;;;;8.98;8.07;;;19.20;99.90;;;;;;5049722;28;20033;-73
2023/07/20 12:26:22;;;;;;;9.82;7.72;;;19.10;99.90;;;;;;5050326;28;20031;-73
2023/07/20 12:28:48;;;;;;;11.60;7.97;;;19.00;99.90;;;;;;5049932;28;20148;-74
2023/07/20 12:31:14;;;;;;;9.95;7.95;;;19.10;99.90;;;;;;5049761;28;20119;-73
2023/07/20 12:33:40;;;;;;;8.85;7.95;;;19.20;99.90;;;;;;5049980;28;20252;-72
2023/07/20 12:36:06;;;;;;;11.10;7.40;;;19.30;99.90;;;;;;5049585;28;20096;-72
2023/07/20 12:38:31;;;;;;;8.25;7.45;;;19.40;99.90;;;;;;5049328;28;20029;-73
2023/07/20 12:40:58;;;;;;;9.90;7.72;;;19.50;99.90;;;;;;5049562;28;20079;-73
2023/07/20 12:43:24;;;;;;;11.75;7.18;;;19.40;99.90;;;;;;5050247;28;20051;-73
2023/07/20 12:45:50;;;;;;;8.80;7.20;;;19.60;99.90;;;;;;5049827;28;20029;-75